Time;durP1;ratioP1;P1;durP2;ratioP2;P2;SDS_P1;SDS_P2;PMS_P1;PMS_P2;Temp;Humidity;BMP_temperature;BMP_pressure;BME280_temperature;BME280_humidity;BME280_pressure;Samples;Min_cycle;Max_cycle;Signal;HPM_P1;HPM_P2
2023/07/12 00:00:27;;;;;;;3.63;1.30;;;22.40;99.90;;;;;;5011918;28;20223;-59
2023/07/12 00:02:55;;;;;;;2.70;1.77;;;22.40;99.90;;;;;;5003613;28;20222;-59
2023/07/12 00:05:23;;;;;;;2.63;2.17;;;22.40;99.90;;;;;;5011569;28;20200;-59
2023/07/12 00:07:51;;;;;;;3.40;1.30;;;22.40;99.90;;;;;;5010998;28;20233;-58
2023/07/12 00:10:21;;;;;;;1.93;1.70;;;22.50;99.90;;;;;;5011156;28;20222;-69
2023/07/12 00:12:49;;;;;;;3.20;1.93;;;22.40;99.90;;;;;;5011503;28;20199;-74
2023/07/12 00:15:20;;;;;;;1.50;1.40;;;22.40;99.90;;;;;;5010398;28;20203;-59
2023/07/12 00:17:48;;;;;;;2.63;1.17;;;22.40;99.90;;;;;;5006150;28;20203;-59
2023/07/12 00:20:20;;;;;;;1.10;1.10;;;22.40;99.90;;;;;;5007664;28;20250;-60
2023/07/12 00:22:47;;;;;;;2.60;2.10;;;22.40;99.90;;;;;;5009196;28;20219;-60
2023/07/12 00:25:16;;;;;;;4.30;1.63;;;22.40;99.90;;;;;;5009872;28;20203;-60
2023/07/12 00:27:43;;;;;;;4.33;1.40;;;22.40;99.90;;;;;;5009834;28;20199;-60
2023/07/12 00:30:15;;;;;;;2.73;2.50;;;22.50;99.90;;;;;;5009267;28;20219;-60
2023/07/12 00:32:42;;;;;;;4.60;1.50;;;22.50;99.90;;;;;;5008677;28;20203;-60
2023/07/12 00:35:13;;;;;;;3.60;1.30;;;22.50;99.90;;;;;;5011564;28;20215;-60
2023/07/12 00:37:41;;;;;;;2.73;1.20;;;22.40;99.90;;;;;;5010648;28;20204;-59
2023/07/12 00:40:28;;;;;;;3.30;1.20;;;22.50;99.90;;;;;;5010126;28;20278;-59
2023/07/12 00:43:05;;;;;;;4.07;1.17;;;22.50;99.90;;;;;;5011910;28;20226;-60
2023/07/12 00:45:34;;;;;;;2.23;1.27;;;22.50;99.90;;;;;;5015481;28;20693;-59
2023/07/12 00:48:01;;;;;;;1.50;1.40;;;22.50;99.90;;;;;;5015115;28;20669;-60
2023/07/12 00:50:28;;;;;;;2.53;1.03;;;22.50;99.90;;;;;;5014222;28;20223;-60
2023/07/12 00:52:55;;;;;;;4.27;1.53;;;22.60;99.90;;;;;;5014393;28;20744;-59
2023/07/12 00:55:55;;;;;;;3.37;1.77;;;22.60;99.90;;;;;;5011814;28;20207;-59
2023/07/12 00:58:26;;;;;;;5.27;2.07;;;22.50;99.90;;;;;;5009238;28;20323;-60
2023/07/12 01:00:53;;;;;;;2.57;1.47;;;22.50;99.90;;;;;;5015344;28;20559;-59
2023/07/12 01:03:23;;;;;;;5.27;2.67;;;22.40;99.90;;;;;;5013970;28;20219;-60
2023/07/12 01:05:51;;;;;;;1.40;1.30;;;22.40;99.90;;;;;;5015109;28;20206;-59
2023/07/12 01:08:21;;;;;;;3.83;1.33;;;22.30;99.90;;;;;;5014719;28;20265;-60
2023/07/12 01:10:48;;;;;;;5.17;1.80;;;22.30;99.90;;;;;;5014605;28;20227;-60
2023/07/12 01:13:20;;;;;;;6.40;1.40;;;22.30;99.90;;;;;;5005122;28;20191;-59
2023/07/12 01:15:49;;;;;;;1.90;1.80;;;22.20;99.90;;;;;;5013385;28;20580;-59
2023/07/12 01:18:16;;;;;;;5.10;1.77;;;22.30;99.90;;;;;;5014749;28;20191;-59
2023/07/12 01:20:44;;;;;;;4.30;1.83;;;22.40;99.90;;;;;;5014907;28;20227;-59
2023/07/12 01:23:13;;;;;;;3.13;1.27;;;22.50;99.90;;;;;;5014647;28;20229;-59
2023/07/12 01:25:43;;;;;;;3.37;1.57;;;22.50;99.90;;;;;;5014763;28;20743;-59
2023/07/12 01:28:10;;;;;;;2.23;2.13;;;22.60;99.90;;;;;;5010884;28;20195;-59
2023/07/12 01:30:38;;;;;;;5.60;2.00;;;22.60;99.90;;;;;;5014491;28;20223;-60
2023/07/12 01:33:06;;;;;;;5.03;2.17;;;22.60;99.90;;;;;;5014535;28;20210;-59
2023/07/12 01:35:33;;;;;;;3.03;1.60;;;22.60;99.90;;;;;;5014605;28;20207;-60
2023/07/12 01:38:00;;;;;;;6.50;1.93;;;22.60;99.90;;;;;;5013669;28;20199;-59
2023/07/12 01:40:28;;;;;;;1.80;1.70;;;22.60;99.90;;;;;;5014564;28;20219;-60
2023/07/12 01:42:55;;;;;;;2.13;1.57;;;22.60;99.90;;;;;;5014171;28;20223;-60
2023/07/12 01:45:22;;;;;;;3.13;1.90;;;22.50;99.90;;;;;;5012483;28;20257;-59
2023/07/12 01:47:49;;;;;;;4.03;2.00;;;22.50;99.90;;;;;;5014116;28;20227;-60
2023/07/12 01:50:16;;;;;;;1.77;1.67;;;22.50;99.90;;;;;;5013082;28;20269;-59
2023/07/12 01:52:44;;;;;;;2.13;1.63;;;22.40;99.90;;;;;;5013416;28;20199;-59
2023/07/12 01:55:11;;;;;;;1.33;1.33;;;22.40;99.90;;;;;;5014010;28;20281;-59
2023/07/12 01:57:42;;;;;;;2.30;1.60;;;22.30;99.90;;;;;;5014270;28;20249;-59
2023/07/12 02:00:10;;;;;;;2.77;2.27;;;22.40;99.90;;;;;;5012886;28;20227;-58
2023/07/12 02:02:38;;;;;;;3.83;2.00;;;22.30;99.90;;;;;;5012154;28;20279;-59
2023/07/12 02:05:06;;;;;;;4.43;1.63;;;22.30;99.90;;;;;;5013881;28;20254;-59
2023/07/12 02:07:33;;;;;;;2.53;2.03;;;22.30;99.90;;;;;;5013126;28;20239;-59
2023/07/12 02:10:12;;;;;;;4.23;2.03;;;22.20;99.90;;;;;;5013656;28;20219;-60
2023/07/12 02:12:44;;;;;;;3.13;1.40;;;22.20;99.90;;;;;;5013601;28;20673;-59
2023/07/12 02:15:13;;;;;;;2.80;1.80;;;22.20;99.90;;;;;;5012449;28;20639;-59
2023/07/12 02:17:41;;;;;;;6.63;2.13;;;22.20;99.90;;;;;;5012287;28;20230;-59
2023/07/12 02:20:10;;;;;;;4.10;2.00;;;22.20;99.90;;;;;;5012137;28;20300;-60
2023/07/12 02:22:43;;;;;;;4.40;2.07;;;22.20;99.90;;;;;;5013044;28;20219;-58
2023/07/12 02:25:11;;;;;;;2.30;2.10;;;22.20;99.90;;;;;;5013630;28;20229;-59
2023/07/12 02:27:41;;;;;;;3.77;2.70;;;22.20;99.90;;;;;;5012381;28;20203;-59
2023/07/12 02:30:12;;;;;;;2.93;2.63;;;22.20;99.90;;;;;;5011906;28;20314;-59
2023/07/12 02:32:42;;;;;;;3.30;2.43;;;22.20;99.90;;;;;;5005487;28;20253;-59
2023/07/12 02:35:09;;;;;;;2.20;2.00;;;22.10;99.90;;;;;;5013278;28;20196;-60
2023/07/12 02:37:39;;;;;;;3.40;1.90;;;22.10;99.90;;;;;;5013337;28;20260;-59
2023/07/12 02:40:09;;;;;;;2.20;2.10;;;22.10;99.90;;;;;;5012185;28;20281;-59
2023/07/12 02:42:35;;;;;;;1.93;1.73;;;22.10;99.90;;;;;;5012704;28;20716;-59
2023/07/12 02:45:03;;;;;;;6.20;1.70;;;22.10;99.90;;;;;;5008669;28;20211;-59
2023/07/12 02:47:31;;;;;;;3.10;2.80;;;22.10;99.90;;;;;;5007864;28;20226;-59
2023/07/12 02:49:58;;;;;;;3.83;2.07;;;22.10;99.90;;;;;;5012914;28;20251;-60
2023/07/12 02:52:25;;;;;;;2.50;2.30;;;22.20;99.90;;;;;;5010852;28;20235;-59
2023/07/12 02:54:52;;;;;;;2.40;2.20;;;22.10;99.90;;;;;;5012399;28;20207;-59
2023/07/12 02:57:19;;;;;;;4.33;2.53;;;22.10;99.90;;;;;;5012721;28;20203;-59
2023/07/12 02:59:46;;;;;;;1.90;1.80;;;22.20;99.90;;;;;;5003391;28;20258;-59
2023/07/12 03:02:14;;;;;;;3.13;1.97;;;22.10;99.90;;;;;;5012379;28;20211;-59
2023/07/12 03:04:42;;;;;;;3.10;1.70;;;22.10;99.90;;;;;;5011492;28;20196;-59
2023/07/12 03:07:09;;;;;;;3.50;1.73;;;22.00;99.90;;;;;;5004740;28;20191;-59
2023/07/12 03:09:36;;;;;;;1.93;1.47;;;21.90;99.90;;;;;;5012602;28;20257;-60
2023/07/12 03:12:04;;;;;;;2.93;1.50;;;21.80;99.90;;;;;;5011767;28;20247;-59
2023/07/12 03:14:30;;;;;;;1.60;1.47;;;21.80;99.90;;;;;;5004336;28;20203;-59
2023/07/12 03:16:57;;;;;;;3.63;2.10;;;21.70;99.90;;;;;;5011442;28;20234;-59
2023/07/12 03:19:25;;;;;;;2.13;1.50;;;21.70;99.90;;;;;;5006571;28;20203;-59
2023/07/12 03:21:53;;;;;;;3.73;2.47;;;21.70;99.90;;;;;;5012205;28;20739;-59
2023/07/12 03:24:20;;;;;;;5.07;2.13;;;21.70;99.90;;;;;;5012013;28;20289;-59
2023/07/12 03:26:47;;;;;;;2.00;1.90;;;21.60;99.90;;;;;;5011094;28;20199;-59
2023/07/12 03:29:14;;;;;;;3.23;1.43;;;21.60;99.90;;;;;;5004225;28;20233;-59
2023/07/12 03:31:41;;;;;;;2.27;2.07;;;21.60;99.90;;;;;;5012238;28;20265;-59
2023/07/12 03:34:08;;;;;;;2.50;2.00;;;21.60;99.90;;;;;;5011945;28;20673;-59
2023/07/12 03:36:37;;;;;;;6.53;1.93;;;21.60;99.90;;;;;;5012018;28;20203;-60
2023/07/12 03:39:05;;;;;;;2.80;1.97;;;21.60;99.90;;;;;;5012059;28;20647;-59
2023/07/12 03:41:32;;;;;;;2.87;2.30;;;21.60;99.90;;;;;;5007052;28;20227;-59
2023/07/12 03:43:59;;;;;;;4.97;2.07;;;21.50;99.90;;;;;;5011567;28;20310;-59
2023/07/12 03:46:26;;;;;;;2.97;2.67;;;21.40;99.90;;;;;;5010819;28;20227;-59
2023/07/12 03:48:53;;;;;;;5.87;2.87;;;21.50;99.90;;;;;;5011834;28;20199;-59
2023/07/12 03:51:22;;;;;;;5.03;2.53;;;21.50;99.90;;;;;;5011581;28;20725;-59
2023/07/12 03:53:49;;;;;;;2.57;2.37;;;21.60;99.90;;;;;;5010577;28;20223;-59
2023/07/12 03:56:18;;;;;;;2.87;2.70;;;21.60;99.90;;;;;;5010357;28;20231;-59
2023/07/12 03:58:45;;;;;;;3.40;2.30;;;21.60;99.90;;;;;;5011178;28;20264;-59
2023/07/12 04:01:13;;;;;;;1.93;1.80;;;21.60;99.90;;;;;;5009870;28;20219;-59
2023/07/12 04:03:41;;;;;;;5.03;2.10;;;21.60;99.90;;;;;;5009327;28;20730;-60
2023/07/12 04:06:09;;;;;;;5.00;2.40;;;21.60;99.90;;;;;;5007380;28;20597;-59
2023/07/12 04:08:37;;;;;;;4.27;2.57;;;21.70;99.90;;;;;;5007787;28;20195;-59
2023/07/12 04:11:05;;;;;;;1.90;1.80;;;21.60;99.90;;;;;;5009497;28;20281;-60
2023/07/12 04:13:33;;;;;;;3.33;2.23;;;21.60;99.90;;;;;;5009803;28;20305;-59
2023/07/12 04:16:02;;;;;;;4.20;1.87;;;21.70;99.90;;;;;;5005349;28;20567;-59
2023/07/12 04:18:30;;;;;;;3.47;2.10;;;21.70;99.90;;;;;;5005881;28;20191;-59
2023/07/12 04:21:03;;;;;;;2.20;2.00;;;21.70;99.90;;;;;;5009794;28;20636;-59
2023/07/12 04:23:30;;;;;;;4.50;2.10;;;21.70;99.90;;;;;;5001959;28;20226;-59
2023/07/12 04:26:01;;;;;;;2.47;1.57;;;21.80;99.90;;;;;;5006016;28;20195;-59
2023/07/12 04:28:28;;;;;;;2.20;1.87;;;21.80;99.90;;;;;;5008540;28;21132;-58
2023/07/12 04:30:57;;;;;;;2.57;1.97;;;21.80;99.90;;;;;;5003707;28;20281;-59
2023/07/12 04:33:24;;;;;;;3.57;2.90;;;21.70;99.90;;;;;;5008770;28;20412;-59
2023/07/12 04:35:52;;;;;;;3.57;3.27;;;21.60;99.90;;;;;;5007510;28;20735;-59
2023/07/12 04:38:20;;;;;;;2.97;2.77;;;21.60;99.90;;;;;;5003412;28;20673;-59
2023/07/12 04:40:53;;;;;;;3.80;3.50;;;21.60;99.90;;;;;;5002439;28;20250;-57
2023/07/12 04:43:20;;;;;;;3.63;3.37;;;21.60;99.90;;;;;;5009321;28;20302;-57
2023/07/12 04:45:48;;;;;;;4.37;2.90;;;21.60;99.90;;;;;;5009821;28;20199;-57
2023/07/12 04:48:16;;;;;;;8.03;2.90;;;21.50;99.90;;;;;;5009483;28;20662;-58
2023/07/12 04:50:44;;;;;;;3.43;3.10;;;21.50;99.90;;;;;;5009644;28;20348;-58
2023/07/12 04:53:12;;;;;;;3.97;3.17;;;21.30;99.90;;;;;;5008830;28;20191;-57
2023/07/12 04:55:39;;;;;;;5.87;3.40;;;21.30;99.90;;;;;;5006148;28;20199;-57
2023/07/12 04:58:07;;;;;;;10.27;5.87;;;21.20;99.90;;;;;;5010473;28;20203;-56
2023/07/12 05:00:34;;;;;;;4.27;3.90;;;20.90;99.90;;;;;;5008900;28;20341;-57
2023/07/12 05:03:01;;;;;;;8.93;4.20;;;20.80;99.90;;;;;;5009294;28;20363;-56
2023/07/12 05:05:30;;;;;;;7.63;4.37;;;20.70;99.90;;;;;;5004361;28;20200;-57
2023/07/12 05:07:57;;;;;;;9.93;4.57;;;20.70;99.90;;;;;;5005828;28;20195;-57
2023/07/12 05:10:24;;;;;;;5.13;4.63;;;20.60;99.90;;;;;;5010724;28;20285;-57
2023/07/12 05:12:53;;;;;;;5.23;3.67;;;20.50;99.90;;;;;;5009307;28;20338;-57
2023/07/12 05:15:20;;;;;;;6.10;4.27;;;20.60;99.90;;;;;;5007062;28;20687;-58
2023/07/12 05:17:47;;;;;;;6.27;4.00;;;20.60;99.90;;;;;;5006136;28;20225;-57
2023/07/12 05:20:16;;;;;;;5.43;4.97;;;20.60;99.90;;;;;;5009231;28;20215;-57
2023/07/12 05:22:47;;;;;;;6.50;3.60;;;20.50;99.90;;;;;;5006591;28;20250;-56
2023/07/12 05:25:14;;;;;;;6.03;4.13;;;20.40;99.90;;;;;;5008485;28;20203;-58
2023/07/12 05:27:41;;;;;;;5.60;4.47;;;20.40;99.90;;;;;;5009741;28;20265;-57
2023/07/12 05:30:10;;;;;;;5.50;5.00;;;20.50;99.90;;;;;;5012696;28;20839;-57
2023/07/12 05:32:37;;;;;;;5.87;3.40;;;20.50;99.90;;;;;;5011102;28;20207;-57
2023/07/12 05:35:05;;;;;;;6.87;4.00;;;20.40;99.90;;;;;;5012739;28;20254;-57
2023/07/12 05:37:32;;;;;;;5.93;4.60;;;20.40;99.90;;;;;;5013069;28;20202;-58
2023/07/12 05:40:01;;;;;;;7.93;5.13;;;20.40;99.90;;;;;;5007942;28;20199;-57
2023/07/12 05:42:28;;;;;;;13.60;5.90;;;20.40;99.90;;;;;;5012182;28;20574;-57
2023/07/12 05:44:55;;;;;;;5.67;4.30;;;20.50;99.90;;;;;;5011727;28;20243;-57
2023/07/12 05:47:22;;;;;;;5.37;4.17;;;20.40;99.90;;;;;;5013046;28;20621;-57
2023/07/12 05:49:49;;;;;;;7.97;4.97;;;20.40;99.90;;;;;;5008947;28;20199;-58
2023/07/12 05:52:16;;;;;;;4.03;3.57;;;20.40;99.90;;;;;;5012471;28;20571;-57
2023/07/12 05:54:43;;;;;;;5.87;3.83;;;20.40;99.90;;;;;;5011225;28;20657;-59
2023/07/12 05:57:11;;;;;;;6.57;4.30;;;20.40;99.90;;;;;;5011466;28;20277;-57
2023/07/12 05:59:38;;;;;;;6.93;4.17;;;20.30;99.90;;;;;;5008324;28;20207;-58
2023/07/12 06:02:06;;;;;;;10.90;5.23;;;20.30;99.90;;;;;;5009678;28;20223;-58
2023/07/12 06:04:33;;;;;;;7.20;4.93;;;20.40;99.90;;;;;;5011728;28;20219;-58
2023/07/12 06:07:00;;;;;;;12.17;5.43;;;20.30;99.90;;;;;;5012146;28;20206;-58
2023/07/12 06:09:27;;;;;;;3.93;3.57;;;20.30;99.90;;;;;;5012287;28;20807;-57
2023/07/12 06:11:54;;;;;;;5.87;4.17;;;20.20;99.90;;;;;;5009263;28;20285;-56
2023/07/12 06:14:22;;;;;;;5.90;4.80;;;20.30;99.90;;;;;;5011923;28;20211;-58
2023/07/12 06:16:49;;;;;;;3.90;3.53;;;20.20;99.90;;;;;;5011689;28;20222;-57
2023/07/12 06:19:16;;;;;;;6.13;4.93;;;20.20;99.90;;;;;;5010118;28;20279;-57
2023/07/12 06:21:43;;;;;;;6.97;4.47;;;20.10;99.90;;;;;;5008204;28;20649;-57
2023/07/12 06:24:10;;;;;;;3.60;3.37;;;20.00;99.90;;;;;;5011543;28;20219;-57
2023/07/12 06:26:37;;;;;;;4.10;3.80;;;20.10;99.90;;;;;;5011685;28;20511;-57
2023/07/12 06:29:04;;;;;;;4.07;3.73;;;20.10;99.90;;;;;;5011031;28;20266;-58
2023/07/12 06:31:32;;;;;;;4.37;2.87;;;20.10;99.90;;;;;;5011688;28;20752;-57
2023/07/12 06:34:02;;;;;;;3.17;2.97;;;20.00;99.90;;;;;;5011761;28;20609;-57
2023/07/12 06:36:29;;;;;;;5.53;3.03;;;20.00;99.90;;;;;;5011722;28;20207;-57
2023/07/12 06:38:56;;;;;;;3.03;2.80;;;20.20;99.90;;;;;;5011194;28;20581;-58
2023/07/12 06:41:23;;;;;;;4.10;3.90;;;20.20;99.90;;;;;;5011279;28;20223;-58
2023/07/12 06:43:50;;;;;;;4.50;3.50;;;20.30;99.90;;;;;;5007829;28;20266;-58
2023/07/12 06:46:17;;;;;;;3.80;3.60;;;20.40;99.90;;;;;;5010963;28;20262;-57
2023/07/12 06:48:46;;;;;;;3.77;3.53;;;20.60;99.90;;;;;;5011577;28;20258;-58
2023/07/12 06:51:14;;;;;;;5.30;3.40;;;20.70;99.90;;;;;;5010287;28;20214;-58
2023/07/12 06:53:41;;;;;;;5.20;3.43;;;20.70;99.90;;;;;;5011259;28;20617;-57
2023/07/12 06:56:08;;;;;;;5.83;3.97;;;20.80;99.90;;;;;;5009558;28;20409;-57
2023/07/12 06:58:35;;;;;;;3.10;2.90;;;21.00;99.90;;;;;;5011283;28;20199;-57
2023/07/12 07:01:07;;;;;;;3.97;3.17;;;21.00;99.90;;;;;;5011268;28;20215;-56
2023/07/12 07:03:34;;;;;;;3.70;3.17;;;21.20;99.90;;;;;;5010479;28;20648;-57
2023/07/12 07:06:03;;;;;;;3.53;3.30;;;21.20;99.90;;;;;;4999370;28;20207;-59
2023/07/12 07:08:31;;;;;;;4.43;3.00;;;21.30;99.90;;;;;;5005587;28;20202;-58
2023/07/12 07:11:00;;;;;;;5.43;2.63;;;21.30;99.90;;;;;;5010162;28;20304;-58
2023/07/12 07:13:27;;;;;;;4.77;2.97;;;21.40;99.90;;;;;;5011232;28;20199;-58
2023/07/12 07:15:54;;;;;;;3.87;3.17;;;21.60;99.90;;;;;;5010698;28;20195;-57
2023/07/12 07:18:21;;;;;;;4.73;2.90;;;21.60;99.90;;;;;;5010596;28;20223;-58
2023/07/12 07:20:48;;;;;;;3.73;3.43;;;21.70;99.90;;;;;;5011231;28;20231;-58
2023/07/12 07:23:16;;;;;;;2.87;2.40;;;21.80;99.90;;;;;;5010348;28;20199;-57
2023/07/12 07:25:43;;;;;;;2.85;2.55;;;22.00;99.90;;;;;;5011741;28;20501;-73
2023/07/12 07:28:10;;;;;;;4.90;2.13;;;22.10;99.90;;;;;;5011542;28;20203;-75
2023/07/12 07:30:38;;;;;;;3.20;2.10;;;22.10;99.90;;;;;;5009516;28;20285;-72
2023/07/12 07:33:05;;;;;;;2.87;2.13;;;22.20;99.90;;;;;;5010485;28;20199;-75
2023/07/12 07:35:32;;;;;;;2.00;1.90;;;22.40;99.90;;;;;;5010906;28;20203;-58
2023/07/12 07:37:59;;;;;;;2.50;2.40;;;22.50;99.90;;;;;;5009299;28;20239;-58
2023/07/12 07:40:27;;;;;;;2.33;2.23;;;22.60;99.90;;;;;;5010053;28;20253;-58
2023/07/12 07:42:56;;;;;;;1.60;1.60;;;23.00;99.90;;;;;;5009575;28;20732;-58
2023/07/12 07:45:24;;;;;;;2.80;2.43;;;23.40;99.90;;;;;;5008042;28;20717;-58
2023/07/12 07:47:51;;;;;;;4.23;2.37;;;23.70;99.90;;;;;;5011736;28;20199;-58
2023/07/12 07:50:20;;;;;;;3.77;1.53;;;24.10;99.90;;;;;;5009466;28;20223;-58
2023/07/12 07:52:47;;;;;;;3.27;2.23;;;24.50;99.90;;;;;;5012298;28;20203;-58
2023/07/12 07:55:14;;;;;;;4.10;2.40;;;24.70;99.90;;;;;;5011676;28;20257;-59
2023/07/12 07:57:42;;;;;;;1.90;1.80;;;24.70;99.90;;;;;;5011603;28;20665;-59
2023/07/12 08:00:13;;;;;;;5.43;2.77;;;25.00;99.90;;;;;;5008159;28;20227;-58
2023/07/12 08:02:43;;;;;;;3.23;2.23;;;25.40;99.90;;;;;;5009408;28;20582;-58
2023/07/12 08:05:10;;;;;;;2.03;1.93;;;25.80;99.90;;;;;;5005931;28;20226;-58
2023/07/12 08:07:46;;;;;;;5.37;2.33;;;26.10;99.90;;;;;;5011657;28;20565;-58
2023/07/12 08:10:18;;;;;;;3.27;2.20;;;26.10;99.90;;;;;;5026306;28;20226;-58
2023/07/12 08:12:47;;;;;;;1.90;1.80;;;26.20;99.90;;;;;;5024432;28;20273;-59
2023/07/12 08:15:14;;;;;;;1.87;1.77;;;26.40;99.90;;;;;;5011409;28;20242;-58
2023/07/12 08:17:44;;;;;;;1.70;1.70;;;26.60;99.90;;;;;;5011676;28;20206;-59
2023/07/12 08:20:11;;;;;;;3.50;1.83;;;26.60;99.90;;;;;;5011478;28;20219;-59
2023/07/12 08:22:41;;;;;;;2.67;2.10;;;26.50;99.90;;;;;;5010981;28;20203;-58
2023/07/12 08:25:09;;;;;;;4.68;1.80;;;26.40;99.90;;;;;;5011590;28;20253;-58
2023/07/12 08:27:36;;;;;;;3.53;2.10;;;26.60;99.90;;;;;;5002888;28;20571;-58
2023/07/12 08:30:05;;;;;;;3.08;2.67;;;27.00;99.90;;;;;;5011634;28;20220;-59
2023/07/12 08:32:33;;;;;;;4.72;2.72;;;27.50;99.90;;;;;;5009522;28;20661;-58
2023/07/12 08:35:01;;;;;;;2.17;1.98;;;27.80;99.90;;;;;;5011157;28;20201;-59
2023/07/12 08:37:29;;;;;;;2.20;2.10;;;28.20;99.90;;;;;;5011204;28;20680;-59
2023/07/12 08:39:56;;;;;;;2.03;1.92;;;28.40;99.90;;;;;;5011039;28;20211;-58
2023/07/12 08:42:26;;;;;;;2.33;2.22;;;29.20;99.90;;;;;;5010387;28;20242;-59
2023/07/12 08:44:55;;;;;;;2.50;1.88;;;29.90;99.90;;;;;;5010373;28;20802;-58
2023/07/12 08:47:27;;;;;;;2.20;1.83;;;30.30;99.90;;;;;;5011048;28;20199;-59
2023/07/12 08:49:55;;;;;;;2.35;2.15;;;30.20;99.90;;;;;;5011014;28;20199;-58
2023/07/12 08:52:26;;;;;;;2.00;1.90;;;30.60;99.90;;;;;;5010926;28;20273;-58
2023/07/12 08:54:53;;;;;;;2.88;2.67;;;30.80;99.90;;;;;;5011301;28;20527;-58
2023/07/12 08:57:23;;;;;;;4.85;2.63;;;30.90;99.90;;;;;;5011301;28;20234;-58
2023/07/12 09:00:01;;;;;;;3.55;2.10;;;30.80;99.90;;;;;;5008677;28;20206;-58
2023/07/12 09:02:31;;;;;;;2.17;1.83;;;31.00;99.90;;;;;;5011571;28;20203;-59
2023/07/12 09:05:00;;;;;;;3.75;2.60;;;31.10;99.90;;;;;;5015011;28;20219;-59
2023/07/12 09:07:32;;;;;;;3.25;3.03;;;31.40;99.90;;;;;;5014861;28;20690;-58
2023/07/12 09:10:01;;;;;;;3.95;2.78;;;32.40;99.90;;;;;;5012525;28;20203;-59
2023/07/12 09:12:30;;;;;;;6.13;2.50;;;32.90;99.90;;;;;;5014416;28;20191;-59
2023/07/12 09:15:00;;;;;;;3.05;2.50;;;32.80;99.90;;;;;;5014606;28;20230;-59
2023/07/12 09:17:31;;;;;;;2.85;2.63;;;33.20;99.90;;;;;;5014774;28;20203;-59
2023/07/12 09:19:58;;;;;;;2.85;2.65;;;33.10;99.90;;;;;;5014674;28;20211;-59
2023/07/12 09:22:29;;;;;;;3.65;3.50;;;33.40;99.90;;;;;;5013586;28;20207;-58
2023/07/12 09:24:57;;;;;;;5.55;2.85;;;33.80;99.90;;;;;;5014304;28;20246;-58
2023/07/12 09:27:26;;;;;;;6.03;2.80;;;34.10;99.90;;;;;;5014618;28;20249;-58
2023/07/12 09:30:00;;;;;;;4.15;3.03;;;34.00;99.90;;;;;;5014142;28;20643;-58
2023/07/12 09:32:33;;;;;;;2.72;2.50;;;34.10;99.90;;;;;;5014305;28;20207;-59
2023/07/12 09:35:01;;;;;;;3.58;3.30;;;34.40;99.90;;;;;;5014655;28;20199;-59
2023/07/12 09:37:28;;;;;;;3.50;2.85;;;33.90;99.90;;;;;;5014550;28;20207;-59
2023/07/12 09:39:56;;;;;;;5.90;2.97;;;32.60;99.90;;;;;;5009310;28;20741;-58
2023/07/12 09:42:24;;;;;;;8.25;3.17;;;32.10;99.90;;;;;;5007937;28;20250;-59
2023/07/12 09:44:51;;;;;;;5.30;3.40;;;32.50;99.90;;;;;;5014045;28;20220;-59
2023/07/12 09:47:37;;;;;;;3.88;3.03;;;32.50;99.90;;;;;;5014005;28;20207;-58
2023/07/12 09:50:14;;;;;;;6.45;3.17;;;32.40;99.90;;;;;;5014050;28;20731;-58
2023/07/12 09:52:52;;;;;;;3.88;2.55;;;32.50;99.90;;;;;;5013904;28;20207;-58
2023/07/12 09:55:25;;;;;;;6.85;3.60;;;32.80;99.90;;;;;;5012864;28;20191;-58
2023/07/12 09:58:02;;;;;;;6.65;2.88;;;32.90;99.90;;;;;;5013641;28;20707;-59
2023/07/12 10:00:34;;;;;;;8.43;3.80;;;32.10;99.90;;;;;;5014166;28;20222;-58
2023/07/12 10:03:13;;;;;;;4.38;4.03;;;31.50;99.90;;;;;;5013845;28;20261;-59
2023/07/12 10:05:45;;;;;;;3.95;3.47;;;30.90;99.90;;;;;;5013766;28;20715;-59
2023/07/12 10:08:16;;;;;;;5.68;4.18;;;31.10;99.90;;;;;;5013870;28;20213;-59
2023/07/12 10:10:49;;;;;;;4.35;3.78;;;31.60;99.90;;;;;;5013791;28;20231;-57
2023/07/12 10:13:36;;;;;;;4.30;3.70;;;31.30;99.90;;;;;;5011486;28;20276;-58
2023/07/12 10:16:07;;;;;;;3.72;3.45;;;30.40;99.90;;;;;;5013048;28;20275;-58
2023/07/12 10:18:38;;;;;;;7.32;3.90;;;28.90;99.90;;;;;;5013486;28;20277;-59
2023/07/12 10:21:07;;;;;;;5.50;3.50;;;28.00;99.90;;;;;;5013660;28;20361;-59
2023/07/12 10:23:42;;;;;;;4.00;3.58;;;27.60;99.90;;;;;;5012928;28;20207;-58
2023/07/12 10:26:13;;;;;;;3.83;3.53;;;27.00;99.90;;;;;;5013821;28;20207;-57
2023/07/12 10:28:45;;;;;;;4.38;3.50;;;26.70;99.90;;;;;;5010466;28;20203;-58
2023/07/12 10:31:28;;;;;;;3.92;3.50;;;26.40;99.90;;;;;;5004333;28;20232;-58
2023/07/12 10:34:19;;;;;;;4.18;3.67;;;26.40;99.90;;;;;;5012756;28;20249;-58
2023/07/12 10:36:48;;;;;;;3.30;3.10;;;26.30;99.90;;;;;;5013300;28;20203;-57
2023/07/12 10:39:16;;;;;;;4.18;2.88;;;26.90;99.90;;;;;;5013206;28;20199;-57
2023/07/12 10:41:47;;;;;;;2.97;2.78;;;27.20;99.90;;;;;;5012370;28;20581;-59
2023/07/12 10:44:20;;;;;;;4.07;3.45;;;27.40;99.90;;;;;;5004421;28;20253;-58
2023/07/12 10:46:51;;;;;;;3.78;2.85;;;27.40;99.90;;;;;;5013079;28;20596;-58
2023/07/12 10:49:36;;;;;;;3.08;2.80;;;27.30;99.90;;;;;;5012882;28;20203;-58
2023/07/12 10:52:16;;;;;;;4.32;3.78;;;26.90;99.90;;;;;;5012857;28;20220;-58
2023/07/12 10:55:03;;;;;;;6.25;3.28;;;26.60;99.90;;;;;;5012984;28;20209;-58
2023/07/12 10:57:46;;;;;;;5.03;3.17;;;26.50;99.90;;;;;;5012876;28;20203;-58
2023/07/12 11:00:30;;;;;;;5.60;3.92;;;26.20;99.90;;;;;;5010856;28;20255;-58
2023/07/12 11:03:20;;;;;;;3.60;3.40;;;25.90;99.90;;;;;;5012449;28;20286;-58
2023/07/12 11:06:00;;;;;;;4.25;3.85;;;25.80;99.90;;;;;;5012700;28;20223;-59
2023/07/12 11:08:45;;;;;;;4.68;3.92;;;25.70;99.90;;;;;;5012702;28;20199;-58
2023/07/12 11:11:43;;;;;;;6.65;3.45;;;25.70;99.90;;;;;;5012550;28;20238;-58
2023/07/12 11:14:33;;;;;;;3.80;3.60;;;25.80;99.90;;;;;;4992227;28;20263;-58
2023/07/12 11:17:21;;;;;;;4.82;4.00;;;25.80;99.90;;;;;;4991256;28;20203;-57
2023/07/12 11:20:03;;;;;;;5.77;3.40;;;26.10;99.90;;;;;;5009349;28;20261;-58
2023/07/12 11:23:18;;;;;;;7.07;4.97;;;26.30;99.90;;;;;;5012332;28;20203;-58
2023/07/12 11:25:58;;;;;;;8.15;4.47;;;26.50;99.90;;;;;;4931435;29;20249;-59
2023/07/12 11:28:44;;;;;;;5.40;4.00;;;26.50;99.90;;;;;;4932308;29;20216;-58
2023/07/12 11:31:29;;;;;;;3.67;2.75;;;26.40;99.90;;;;;;4975697;28;20257;-58
2023/07/12 11:34:04;;;;;;;5.10;4.60;;;26.10;99.90;;;;;;5007445;28;20199;-58
2023/07/12 11:36:34;;;;;;;3.97;3.60;;;25.80;99.90;;;;;;5005553;28;20427;-58
2023/07/12 11:39:02;;;;;;;5.13;3.55;;;25.40;99.90;;;;;;5014540;28;20231;-58
2023/07/12 11:41:31;;;;;;;5.00;4.67;;;25.20;99.90;;;;;;5011693;28;20731;-58
2023/07/12 11:44:02;;;;;;;4.07;3.88;;;24.90;99.90;;;;;;5011854;28;20218;-57
2023/07/12 11:46:31;;;;;;;4.78;4.03;;;24.80;99.90;;;;;;5011792;28;20227;-58
2023/07/12 11:49:03;;;;;;;5.50;3.55;;;24.60;99.90;;;;;;5015293;28;20547;-58
2023/07/12 11:51:35;;;;;;;5.47;3.40;;;24.50;99.90;;;;;;5010721;28;20231;-58
2023/07/12 11:54:04;;;;;;;4.43;4.03;;;24.40;99.90;;;;;;5012865;28;20203;-57
2023/07/12 11:56:32;;;;;;;8.38;4.82;;;24.30;99.90;;;;;;5011636;28;20223;-58
2023/07/12 11:59:00;;;;;;;6.00;4.63;;;24.30;99.90;;;;;;5011819;28;20270;-57
2023/07/12 12:01:27;;;;;;;6.57;4.82;;;24.10;99.90;;;;;;5011640;28;20277;-58
2023/07/12 12:03:54;;;;;;;5.43;4.23;;;24.20;99.90;;;;;;5011209;28;20211;-58
2023/07/12 12:06:22;;;;;;;5.50;5.00;;;24.10;99.90;;;;;;5011772;28;20226;-58
2023/07/12 12:08:54;;;;;;;6.23;5.40;;;23.90;99.90;;;;;;5010894;28;20287;-59
2023/07/12 12:11:21;;;;;;;8.13;5.90;;;23.70;99.90;;;;;;5002541;28;20234;-58
2023/07/12 12:13:53;;;;;;;7.10;6.13;;;23.60;99.90;;;;;;5011092;28;20201;-57
2023/07/12 12:16:22;;;;;;;6.70;5.83;;;23.50;99.90;;;;;;5011549;28;20203;-58
2023/07/12 12:18:55;;;;;;;7.27;5.40;;;23.50;99.90;;;;;;5011543;28;20199;-58
2023/07/12 12:21:24;;;;;;;6.90;5.03;;;23.70;99.90;;;;;;5002696;28;20329;-58
2023/07/12 12:26:24;;;;;;;6.70;6.03;;;24.10;99.90;;;;;;5006405;28;20270;-51
2023/07/12 12:28:56;;;;;;;6.80;5.40;;;24.20;99.90;;;;;;5010826;28;20253;-52
2023/07/12 12:31:26;;;;;;;7.37;6.57;;;24.10;99.90;;;;;;5000742;28;20203;-52
2023/07/12 12:34:02;;;;;;;5.60;5.07;;;24.00;99.90;;;;;;5010624;28;20735;-52
2023/07/12 12:36:32;;;;;;;6.73;5.80;;;23.90;99.90;;;;;;5011179;28;20604;-51
2023/07/12 12:39:05;;;;;;;8.97;5.80;;;24.00;99.90;;;;;;5017141;28;20257;-52
2023/07/12 12:41:43;;;;;;;7.53;6.83;;;24.10;99.90;;;;;;5017713;28;20583;-52
2023/07/12 12:44:17;;;;;;;9.40;7.47;;;24.00;99.90;;;;;;5016651;28;20575;-52
2023/07/12 12:46:44;;;;;;;8.27;7.20;;;24.00;99.90;;;;;;5017690;28;20265;-52
2023/07/12 12:49:22;;;;;;;7.67;6.50;;;24.10;99.90;;;;;;5016037;28;20681;-52
2023/07/12 12:51:51;;;;;;;7.33;6.57;;;24.10;99.90;;;;;;5017036;28;20199;-51
2023/07/12 12:54:18;;;;;;;8.10;7.00;;;24.20;99.90;;;;;;5015705;28;20593;-52
2023/07/12 12:56:46;;;;;;;8.17;7.40;;;24.00;99.90;;;;;;5017562;28;20249;-52
2023/07/12 12:59:17;;;;;;;8.77;7.10;;;23.90;99.90;;;;;;5016611;28;20195;-51
2023/07/12 13:01:45;;;;;;;8.50;7.57;;;23.70;99.90;;;;;;5014144;28;20290;-52